Aviation Digital Data Service (ADDS)

Output produced by METARs form (1716 UTC 20 December 2014)
found at http://aviationweather.gov/adds/metars/
 
KINT 201403Z 2014/2112 06008KT P6SM SCT045 OVC060 
     TEMPO 2014/2016 5SM -SN 
     FM201600 06008KT P6SM SCT025 OVC040 
     FM202200 08005KT P6SM SCT024 SCT050 
     FM210300 00000KT 5SM BR SCT008